createdAt,value
2018-08-16T00:00:13.168Z,18.31
2018-08-16T00:03:17.397Z,18.29
2018-08-16T00:06:21.616Z,18.25
2018-08-16T00:09:26.794Z,18.22
2018-08-16T00:12:31.009Z,18.20
2018-08-16T00:15:35.251Z,18.16
2018-08-16T00:18:39.476Z,18.14
2018-08-16T00:21:43.727Z,18.11
2018-08-16T00:24:47.944Z,18.09
2018-08-16T00:27:52.156Z,18.08
2018-08-16T00:30:56.404Z,18.04
2018-08-16T00:34:00.585Z,18.03
2018-08-16T00:37:04.800Z,18.00
2018-08-16T00:40:12.030Z,17.98
2018-08-16T00:43:16.292Z,17.94
2018-08-16T00:46:20.514Z,17.89
2018-08-16T00:49:24.784Z,17.86
2018-08-16T00:52:29.046Z,17.83
2018-08-16T00:55:33.277Z,17.81
2018-08-16T00:58:37.525Z,17.78
2018-08-16T01:01:41.733Z,17.78
2018-08-16T01:04:45.989Z,17.78
2018-08-16T01:07:50.214Z,17.78
2018-08-16T01:10:54.489Z,17.74
2018-08-16T01:13:58.725Z,17.73
2018-08-16T01:17:02.936Z,17.72
2018-08-16T01:20:07.573Z,17.73
2018-08-16T01:23:11.798Z,17.74
2018-08-16T01:26:16.069Z,17.76
2018-08-16T01:29:20.278Z,17.78
2018-08-16T01:32:24.540Z,17.79
2018-08-16T01:35:28.769Z,17.78
2018-08-16T01:38:33.038Z,17.79
2018-08-16T01:41:37.604Z,17.81
2018-08-16T01:44:41.856Z,17.80
2018-08-16T01:47:46.058Z,17.82
2018-08-16T01:50:50.300Z,17.84
2018-08-16T01:53:54.538Z,17.84
2018-08-16T01:56:59.628Z,17.86
2018-08-16T02:00:05.612Z,17.87
2018-08-16T02:03:09.837Z,17.88
2018-08-16T02:06:14.118Z,17.95
2018-08-16T02:09:18.393Z,17.96
2018-08-16T02:12:22.628Z,17.93
2018-08-16T02:15:26.853Z,17.93
2018-08-16T02:18:32.197Z,17.92
2018-08-16T02:21:37.305Z,17.88
2018-08-16T02:24:41.910Z,17.87
2018-08-16T02:27:46.476Z,17.88
2018-08-16T02:30:51.068Z,17.85
2018-08-16T02:33:55.861Z,17.84
2018-08-16T02:37:00.103Z,17.83
2018-08-16T02:40:04.820Z,17.85
2018-08-16T02:43:09.061Z,17.85
2018-08-16T02:46:13.317Z,17.82
2018-08-16T02:49:17.553Z,17.76
2018-08-16T02:52:21.785Z,17.74
2018-08-16T02:55:26.033Z,17.71
2018-08-16T02:58:30.280Z,17.70
2018-08-16T03:01:34.538Z,17.70
2018-08-16T03:04:38.784Z,17.70
2018-08-16T03:07:43.153Z,17.70
2018-08-16T03:10:47.377Z,17.71
2018-08-16T03:13:51.612Z,17.70
2018-08-16T03:16:56.041Z,17.68
2018-08-16T03:20:01.686Z,17.67
2018-08-16T03:23:05.992Z,17.67
2018-08-16T03:26:10.222Z,17.70
2018-08-16T03:29:14.557Z,17.68
2018-08-16T03:32:18.819Z,17.71
2018-08-16T03:35:23.089Z,17.77
2018-08-16T03:38:27.421Z,17.80
2018-08-16T03:41:31.688Z,17.79
2018-08-16T03:44:37.250Z,17.80
2018-08-16T03:47:42.223Z,17.86
2018-08-16T03:50:47.026Z,17.93
2018-08-16T03:53:52.060Z,17.94
2018-08-16T03:56:57.696Z,17.97
2018-08-16T04:00:02.929Z,18.03
2018-08-16T04:03:08.035Z,18.08
2018-08-16T04:06:12.933Z,18.08
2018-08-16T04:09:17.929Z,18.10
2018-08-16T04:12:23.313Z,18.10
2018-08-16T04:15:28.393Z,18.13
2018-08-16T04:18:32.693Z,18.15
2018-08-16T04:21:36.929Z,18.18
2018-08-16T04:24:41.146Z,18.19
2018-08-16T04:27:45.406Z,18.23
2018-08-16T04:30:49.670Z,18.25
2018-08-16T04:33:53.897Z,18.27
2018-08-16T04:36:58.140Z,18.33
2018-08-16T04:40:02.393Z,18.33
2018-08-16T04:43:06.897Z,18.34
2018-08-16T04:46:11.134Z,18.34
2018-08-16T04:49:15.382Z,18.37
2018-08-16T04:52:19.673Z,18.38
2018-08-16T04:55:23.905Z,18.43
2018-08-16T04:58:28.161Z,18.46
2018-08-16T05:01:32.360Z,18.50
2018-08-16T05:04:36.621Z,18.53
2018-08-16T05:07:40.875Z,18.54
2018-08-16T05:10:45.110Z,18.54
2018-08-16T05:13:49.313Z,18.56
2018-08-16T05:16:53.594Z,18.60
2018-08-16T05:19:57.841Z,18.61
2018-08-16T05:23:02.081Z,18.60
2018-08-16T05:26:07.135Z,18.62
2018-08-16T05:29:12.386Z,18.66
2018-08-16T05:32:17.242Z,18.70
2018-08-16T05:35:22.545Z,18.72
2018-08-16T05:38:27.623Z,18.73
2018-08-16T05:41:32.009Z,18.76
2018-08-16T05:44:36.207Z,18.82
2018-08-16T05:47:41.161Z,18.86
2018-08-16T05:50:46.349Z,18.91
2018-08-16T05:53:51.022Z,18.93
2018-08-16T05:56:55.674Z,18.99
2018-08-16T06:00:01.513Z,19.02
2018-08-16T06:03:06.119Z,19.07
2018-08-16T06:06:10.780Z,19.11
2018-08-16T06:09:16.026Z,19.19
2018-08-16T06:12:21.610Z,19.36
2018-08-16T06:15:26.125Z,19.47
2018-08-16T06:18:32.682Z,19.56
2018-08-16T06:21:38.269Z,19.59
2018-08-16T06:24:43.957Z,19.60
2018-08-16T06:27:49.457Z,19.64
2018-08-16T06:30:53.790Z,19.65
2018-08-16T06:33:58.379Z,19.66
2018-08-16T06:37:02.689Z,19.65
2018-08-16T06:40:11.957Z,19.66
2018-08-16T06:43:16.302Z,19.69
2018-08-16T06:46:20.670Z,19.76
2018-08-16T06:49:24.940Z,19.80
2018-08-16T06:52:29.271Z,19.89
2018-08-16T06:55:33.528Z,19.87
2018-08-16T06:58:37.810Z,19.91
2018-08-16T07:01:42.023Z,19.98
2018-08-16T07:04:46.356Z,19.98
2018-08-16T07:07:50.629Z,20.07
2018-08-16T07:10:54.885Z,20.23
2018-08-16T07:13:59.996Z,20.39
2018-08-16T07:17:04.715Z,20.47
2018-08-16T07:20:10.253Z,20.61
2018-08-16T07:23:15.395Z,20.67
2018-08-16T07:26:20.388Z,20.64
2018-08-16T07:29:25.243Z,20.75
2018-08-16T07:32:30.801Z,20.83
2018-08-16T07:35:36.534Z,21.00
2018-08-16T07:38:41.260Z,21.07
2018-08-16T07:41:46.060Z,21.15
2018-08-16T07:44:51.329Z,21.24
2018-08-16T07:47:55.861Z,21.33
2018-08-16T07:51:01.159Z,21.40
2018-08-16T07:54:06.327Z,21.39
2018-08-16T07:57:11.962Z,21.49
2018-08-16T08:00:19.679Z,21.63
2018-08-16T08:03:24.569Z,21.64
2018-08-16T08:06:29.358Z,21.70
2018-08-16T08:09:34.733Z,21.76
2018-08-16T08:12:38.982Z,21.67
2018-08-16T08:15:43.264Z,21.59
2018-08-16T08:18:47.521Z,21.48
2018-08-16T08:21:51.760Z,21.54
2018-08-16T08:24:55.996Z,21.81
2018-08-16T08:28:00.265Z,22.04
2018-08-16T08:31:04.545Z,22.13
2018-08-16T08:34:08.806Z,22.10
2018-08-16T08:37:30.140Z,22.01
2018-08-16T08:40:34.360Z,21.96
2018-08-16T08:43:55.679Z,22.10
2018-08-16T08:46:59.922Z,22.13
2018-08-16T08:50:04.177Z,22.21
2018-08-16T08:53:25.561Z,22.20
2018-08-16T08:56:46.937Z,22.28
2018-08-16T08:59:51.168Z,22.40
2018-08-16T09:02:55.452Z,22.49
2018-08-16T09:05:59.688Z,22.51
2018-08-16T09:09:04.107Z,22.53
2018-08-16T09:12:25.513Z,22.66
2018-08-16T09:15:46.343Z,22.92
2018-08-16T09:18:50.601Z,23.13
2018-08-16T09:21:54.833Z,23.27
2018-08-16T09:24:59.093Z,23.43
2018-08-16T09:28:03.330Z,23.51
2018-08-16T09:31:25.323Z,23.29
2018-08-16T09:34:29.560Z,23.05
2018-08-16T09:37:37.679Z,23.02
2018-08-16T09:40:41.934Z,23.07
2018-08-16T09:43:46.204Z,22.96
2018-08-16T09:47:09.404Z,23.12
2018-08-16T09:50:13.677Z,23.31
2018-08-16T09:53:17.976Z,23.41
2018-08-16T09:56:22.254Z,23.47
2018-08-16T09:59:27.478Z,23.59
2018-08-16T10:02:31.928Z,23.52
2018-08-16T10:05:36.342Z,23.42
2018-08-16T10:08:40.727Z,23.40
2018-08-16T10:11:46.103Z,23.51
2018-08-16T10:14:50.913Z,23.64
2018-08-16T10:17:55.881Z,23.83
2018-08-16T10:21:00.380Z,23.77
2018-08-16T10:24:04.949Z,23.57
2018-08-16T10:27:09.287Z,23.61
2018-08-16T10:30:13.555Z,23.62
2018-08-16T10:33:17.832Z,23.63
2018-08-16T10:36:22.138Z,23.65
2018-08-16T10:39:26.489Z,23.68
2018-08-16T10:42:30.714Z,23.86
2018-08-16T10:45:34.952Z,23.89
2018-08-16T10:48:39.194Z,23.83
2018-08-16T10:51:43.468Z,23.81
2018-08-16T10:54:47.722Z,23.92
2018-08-16T10:57:51.961Z,24.02
2018-08-16T11:00:56.197Z,24.16
2018-08-16T11:04:00.457Z,24.12
2018-08-16T11:07:04.823Z,23.96
2018-08-16T11:10:09.074Z,24.03
2018-08-16T11:13:13.329Z,24.16
2018-08-16T11:16:17.577Z,23.96
2018-08-16T11:19:21.832Z,23.73
2018-08-16T11:22:26.045Z,23.85
2018-08-16T11:25:30.264Z,23.90
2018-08-16T11:28:34.469Z,23.77
2018-08-16T11:31:38.713Z,23.62
2018-08-16T11:34:42.921Z,23.67
2018-08-16T11:37:47.153Z,23.74
2018-08-16T11:40:51.415Z,23.68
2018-08-16T11:43:55.650Z,23.65
2018-08-16T11:46:59.849Z,23.66
2018-08-16T11:50:04.433Z,23.77
2018-08-16T11:53:08.668Z,23.82
2018-08-16T11:56:12.941Z,23.89
2018-08-16T11:59:17.161Z,23.88
2018-08-16T12:02:21.420Z,23.83
2018-08-16T12:05:25.669Z,23.93
2018-08-16T12:08:29.913Z,23.78
2018-08-16T12:11:34.137Z,23.78
2018-08-16T12:14:38.381Z,23.69
2018-08-16T12:17:42.589Z,23.71
2018-08-16T12:20:46.789Z,23.73
2018-08-16T12:23:51.015Z,23.78
2018-08-16T12:26:55.237Z,23.82
2018-08-16T12:29:59.465Z,23.75
2018-08-16T12:33:03.684Z,23.85
2018-08-16T12:36:07.946Z,23.92
2018-08-16T12:39:12.156Z,23.64
2018-08-16T12:42:16.421Z,23.51
2018-08-16T12:45:20.660Z,23.50
2018-08-16T12:48:24.949Z,23.56
2018-08-16T12:51:29.181Z,23.57
2018-08-16T12:54:33.404Z,23.52
2018-08-16T12:57:37.643Z,23.52
2018-08-16T13:00:41.860Z,23.62
2018-08-16T13:03:46.113Z,23.63
2018-08-16T13:06:50.353Z,23.65
2018-08-16T13:09:54.577Z,23.61
2018-08-16T13:12:58.809Z,23.59
2018-08-16T13:16:03.053Z,23.58
2018-08-16T13:19:07.344Z,23.62
2018-08-16T13:22:11.591Z,23.73
2018-08-16T13:25:15.820Z,23.55
2018-08-16T13:28:20.075Z,23.51
2018-08-16T13:31:24.359Z,23.61
2018-08-16T13:34:28.536Z,23.70
2018-08-16T13:37:32.756Z,23.56
2018-08-16T13:40:36.982Z,23.60
2018-08-16T13:43:41.212Z,23.64
2018-08-16T13:46:45.433Z,23.64
2018-08-16T13:49:49.624Z,23.59
2018-08-16T13:52:53.858Z,23.54
2018-08-16T13:55:58.211Z,23.56
2018-08-16T13:59:02.456Z,23.65
2018-08-16T14:02:06.740Z,23.79
2018-08-16T14:05:11.077Z,23.83
2018-08-16T14:08:15.271Z,23.87
2018-08-16T14:11:19.493Z,23.88
2018-08-16T14:14:23.732Z,23.93
2018-08-16T14:17:27.976Z,23.96
2018-08-16T14:20:32.164Z,23.98
2018-08-16T14:23:36.410Z,23.93
2018-08-16T14:26:40.640Z,23.96
2018-08-16T14:29:44.898Z,24.00
2018-08-16T14:32:49.130Z,24.02
2018-08-16T14:35:53.377Z,23.99
2018-08-16T14:38:57.622Z,23.89
2018-08-16T14:42:02.090Z,23.79
2018-08-16T14:45:07.585Z,23.71
2018-08-16T14:48:12.405Z,23.65
2018-08-16T14:51:16.645Z,23.73
2018-08-16T14:54:20.898Z,23.85
2018-08-16T14:57:25.113Z,24.02
2018-08-16T15:00:29.360Z,24.10
2018-08-16T15:03:33.625Z,24.13
2018-08-16T15:06:37.800Z,24.31
2018-08-16T15:09:42.048Z,24.40
2018-08-16T15:12:46.341Z,24.41
2018-08-16T15:15:50.537Z,24.33
2018-08-16T15:18:54.791Z,24.26
2018-08-16T15:21:59.005Z,24.03
2018-08-16T15:25:03.249Z,23.99
2018-08-16T15:28:07.760Z,23.90
2018-08-16T15:31:11.989Z,23.79
2018-08-16T15:34:16.224Z,23.72
2018-08-16T15:37:20.486Z,23.69
2018-08-16T15:40:24.698Z,23.65
2018-08-16T15:43:28.888Z,23.63
2018-08-16T15:46:33.105Z,23.65
2018-08-16T15:49:37.385Z,23.78
2018-08-16T15:52:41.599Z,23.84
2018-08-16T15:55:45.893Z,23.88
2018-08-16T15:58:50.104Z,23.96
2018-08-16T16:01:54.357Z,24.10
2018-08-16T16:04:58.609Z,24.19
2018-08-16T16:08:02.833Z,24.29
2018-08-16T16:11:07.279Z,24.20
2018-08-16T16:14:11.541Z,24.06
2018-08-16T16:17:15.767Z,23.96
2018-08-16T16:20:20.113Z,23.88
2018-08-16T16:23:24.329Z,23.75
2018-08-16T16:26:28.622Z,23.65
2018-08-16T16:29:32.855Z,23.61
2018-08-16T16:32:37.236Z,23.50
2018-08-16T16:35:41.458Z,23.50
2018-08-16T16:38:45.677Z,23.61
2018-08-16T16:41:49.918Z,23.70
2018-08-16T16:44:54.161Z,23.68
2018-08-16T16:47:58.414Z,23.69
2018-08-16T16:51:02.622Z,23.68
2018-08-16T16:54:06.885Z,23.70
2018-08-16T16:57:11.122Z,23.67
2018-08-16T17:00:15.350Z,23.57
2018-08-16T17:03:19.554Z,23.44
2018-08-16T17:06:23.805Z,23.34
2018-08-16T17:09:28.049Z,23.19
2018-08-16T17:12:32.279Z,23.12
2018-08-16T17:15:36.515Z,23.04
2018-08-16T17:18:40.745Z,23.00
2018-08-16T17:21:44.936Z,22.90
2018-08-16T17:24:49.150Z,22.82
2018-08-16T17:27:53.412Z,22.82
2018-08-16T17:30:57.628Z,22.82
2018-08-16T17:34:02.485Z,22.79
2018-08-16T17:37:06.819Z,22.77
2018-08-16T17:40:11.072Z,22.69
2018-08-16T17:43:15.308Z,22.71
2018-08-16T17:46:19.548Z,22.66
2018-08-16T17:49:23.815Z,22.62
2018-08-16T17:52:28.761Z,22.64
2018-08-16T17:55:33.017Z,22.65
2018-08-16T17:58:37.267Z,22.62
2018-08-16T18:01:41.474Z,22.60
2018-08-16T18:04:45.745Z,22.60
2018-08-16T18:07:49.964Z,22.54
2018-08-16T18:10:54.249Z,22.52
2018-08-16T18:13:58.508Z,22.58
2018-08-16T18:17:02.769Z,22.58
2018-08-16T18:20:07.252Z,22.53
2018-08-16T18:23:11.474Z,22.44
2018-08-16T18:26:15.779Z,22.40
2018-08-16T18:29:19.981Z,22.36
2018-08-16T18:32:24.360Z,22.30
2018-08-16T18:35:28.606Z,22.22
2018-08-16T18:38:32.922Z,22.20
2018-08-16T18:41:37.740Z,22.13
2018-08-16T18:44:42.156Z,22.05
2018-08-16T18:47:46.325Z,21.97
2018-08-16T18:50:50.610Z,21.88
2018-08-16T18:53:54.934Z,21.79
2018-08-16T18:57:01.449Z,21.74
2018-08-16T19:00:07.544Z,21.67
2018-08-16T19:03:12.089Z,21.64
2018-08-16T19:06:16.645Z,21.61
2018-08-16T19:09:23.966Z,21.53
2018-08-16T19:12:28.837Z,21.47
2018-08-16T19:15:33.832Z,21.40
2018-08-16T19:18:40.693Z,21.31
2018-08-16T19:21:48.025Z,21.23
2018-08-16T19:24:52.992Z,21.16
2018-08-16T19:27:58.177Z,21.07
2018-08-16T19:31:02.485Z,21.01
2018-08-16T19:34:06.720Z,20.95
2018-08-16T19:37:10.973Z,20.88
2018-08-16T19:40:15.204Z,20.85
2018-08-16T19:43:19.481Z,20.80
2018-08-16T19:46:23.805Z,20.72
2018-08-16T19:49:31.439Z,20.70
2018-08-16T19:52:36.441Z,20.67
2018-08-16T19:55:41.424Z,20.64
2018-08-16T19:58:47.465Z,20.59
2018-08-16T20:01:52.648Z,20.56
2018-08-16T20:04:58.107Z,20.49
2018-08-16T20:08:03.348Z,20.43
2018-08-16T20:11:08.596Z,20.35
2018-08-16T20:14:13.308Z,20.25
2018-08-16T20:17:18.588Z,20.17
2018-08-16T20:20:23.698Z,20.15
2018-08-16T20:23:28.733Z,20.09
2018-08-16T20:26:34.441Z,20.02
2018-08-16T20:29:39.933Z,19.98
2018-08-16T20:32:45.464Z,19.95
2018-08-16T20:35:51.731Z,19.95
2018-08-16T20:38:57.020Z,19.90
2018-08-16T20:42:02.414Z,19.91
2018-08-16T20:45:07.641Z,19.87
2018-08-16T20:48:11.968Z,19.83
2018-08-16T20:51:16.198Z,19.78
2018-08-16T20:54:20.444Z,19.76
2018-08-16T20:57:24.752Z,19.76
2018-08-16T21:00:28.978Z,19.76
2018-08-16T21:03:33.234Z,19.75
2018-08-16T21:06:37.676Z,19.73
2018-08-16T21:09:41.887Z,19.72
2018-08-16T21:12:46.133Z,19.67
2018-08-16T21:15:50.373Z,19.65
2018-08-16T21:18:54.774Z,19.66
2018-08-16T21:21:59.026Z,19.62
2018-08-16T21:25:03.301Z,19.56
2018-08-16T21:28:07.589Z,19.53
2018-08-16T21:31:11.837Z,19.48
2018-08-16T21:34:16.105Z,19.39
2018-08-16T21:37:20.333Z,19.35
2018-08-16T21:40:24.607Z,19.31
2018-08-16T21:43:28.804Z,19.28
2018-08-16T21:46:33.065Z,19.25
2018-08-16T21:49:37.297Z,19.22
2018-08-16T21:52:41.561Z,19.18
2018-08-16T21:55:45.829Z,19.13
2018-08-16T21:58:50.057Z,19.08
2018-08-16T22:01:54.396Z,19.05
2018-08-16T22:04:58.619Z,19.04
2018-08-16T22:08:11.769Z,19.04
2018-08-16T22:11:16.034Z,19.03
2018-08-16T22:14:20.259Z,19.02
2018-08-16T22:17:24.493Z,19.01
2018-08-16T22:20:28.816Z,18.97
2018-08-16T22:23:33.040Z,18.92
2018-08-16T22:26:37.272Z,18.89
2018-08-16T22:29:41.529Z,18.86
2018-08-16T22:32:46.512Z,18.87
2018-08-16T22:35:50.769Z,18.82
2018-08-16T22:38:55.080Z,18.81
2018-08-16T22:41:59.329Z,18.77
2018-08-16T22:45:03.914Z,18.75
2018-08-16T22:48:08.413Z,18.72
2018-08-16T22:51:12.659Z,18.71
2018-08-16T22:54:16.878Z,18.69
2018-08-16T22:57:21.129Z,18.68
2018-08-16T23:00:25.373Z,18.61
2018-08-16T23:03:29.626Z,18.56
2018-08-16T23:06:33.873Z,18.47
2018-08-16T23:09:38.588Z,18.41
2018-08-16T23:12:42.900Z,18.35
2018-08-16T23:15:47.161Z,18.30
2018-08-16T23:18:51.404Z,18.25
2018-08-16T23:21:55.647Z,18.23
2018-08-16T23:24:59.909Z,18.20
2018-08-16T23:28:04.137Z,18.12
2018-08-16T23:31:08.380Z,18.07
2018-08-16T23:34:12.604Z,18.00
2018-08-16T23:37:16.841Z,17.97
2018-08-16T23:40:21.098Z,17.94
2018-08-16T23:43:25.321Z,17.90
2018-08-16T23:46:29.610Z,17.85
2018-08-16T23:49:33.850Z,17.76
2018-08-16T23:52:38.112Z,17.69
2018-08-16T23:55:42.364Z,17.65
2018-08-16T23:58:46.644Z,17.59
